sensor_id;sensor_type;location;lat;lon;timestamp;P1;durP1;ratioP1;P2;durP2;ratioP2
32639;SDS011;19049;52.524;11.468;2023-02-04T00:00:10;1.03;;;0.50;;
32639;SDS011;19049;52.524;11.468;2023-02-04T00:02:39;2.63;;;0.50;;
32639;SDS011;19049;52.524;11.468;2023-02-04T00:05:05;0.97;;;0.53;;
32639;SDS011;19049;52.524;11.468;2023-02-04T00:07:32;3.43;;;0.70;;
32639;SDS011;19049;52.524;11.468;2023-02-04T00:09:57;1.47;;;0.50;;
32639;SDS011;19049;52.524;11.468;2023-02-04T00:12:23;1.80;;;0.60;;
32639;SDS011;19049;52.524;11.468;2023-02-04T00:14:49;1.37;;;0.73;;
32639;SDS011;19049;52.524;11.468;2023-02-04T00:17:15;1.13;;;0.70;;
32639;SDS011;19049;52.524;11.468;2023-02-04T00:19:40;0.50;;;0.40;;
32639;SDS011;19049;52.524;11.468;2023-02-04T00:22:07;1.33;;;0.80;;
32639;SDS011;19049;52.524;11.468;2023-02-04T00:24:33;0.83;;;0.57;;
32639;SDS011;19049;52.524;11.468;2023-02-04T00:27:00;1.50;;;0.50;;
32639;SDS011;19049;52.524;11.468;2023-02-04T00:29:25;2.20;;;0.77;;
32639;SDS011;19049;52.524;11.468;2023-02-04T00:31:51;2.07;;;0.73;;
32639;SDS011;19049;52.524;11.468;2023-02-04T00:34:17;1.10;;;0.60;;
32639;SDS011;19049;52.524;11.468;2023-02-04T00:36:43;2.23;;;0.70;;
32639;SDS011;19049;52.524;11.468;2023-02-04T00:39:09;0.90;;;0.80;;
32639;SDS011;19049;52.524;11.468;2023-02-04T00:41:34;1.90;;;0.53;;
32639;SDS011;19049;52.524;11.468;2023-02-04T00:44:02;1.80;;;0.70;;
32639;SDS011;19049;52.524;11.468;2023-02-04T00:46:28;2.10;;;0.90;;
32639;SDS011;19049;52.524;11.468;2023-02-04T00:48:54;1.90;;;0.70;;
32639;SDS011;19049;52.524;11.468;2023-02-04T00:51:22;0.90;;;0.70;;
32639;SDS011;19049;52.524;11.468;2023-02-04T00:53:47;1.57;;;0.60;;
32639;SDS011;19049;52.524;11.468;2023-02-04T00:56:13;1.43;;;0.70;;
32639;SDS011;19049;52.524;11.468;2023-02-04T00:58:39;1.00;;;0.90;;
32639;SDS011;19049;52.524;11.468;2023-02-04T01:01:04;0.83;;;0.70;;
32639;SDS011;19049;52.524;11.468;2023-02-04T01:03:30;1.60;;;0.90;;
32639;SDS011;19049;52.524;11.468;2023-02-04T01:05:56;2.13;;;0.90;;
32639;SDS011;19049;52.524;11.468;2023-02-04T01:08:22;1.13;;;0.73;;
32639;SDS011;19049;52.524;11.468;2023-02-04T01:10:47;1.80;;;0.90;;
32639;SDS011;19049;52.524;11.468;2023-02-04T01:13:13;0.90;;;0.80;;
32639;SDS011;19049;52.524;11.468;2023-02-04T01:15:39;1.20;;;0.93;;
32639;SDS011;19049;52.524;11.468;2023-02-04T01:18:04;1.50;;;0.80;;
32639;SDS011;19049;52.524;11.468;2023-02-04T01:20:30;1.40;;;0.87;;
32639;SDS011;19049;52.524;11.468;2023-02-04T01:22:56;0.97;;;0.90;;
32639;SDS011;19049;52.524;11.468;2023-02-04T01:25:26;1.23;;;1.10;;
32639;SDS011;19049;52.524;11.468;2023-02-04T01:27:52;0.87;;;0.70;;
32639;SDS011;19049;52.524;11.468;2023-02-04T01:30:18;2.27;;;0.90;;
32639;SDS011;19049;52.524;11.468;2023-02-04T01:32:43;1.10;;;0.70;;
32639;SDS011;19049;52.524;11.468;2023-02-04T01:35:10;1.50;;;0.90;;
32639;SDS011;19049;52.524;11.468;2023-02-04T01:37:35;2.80;;;0.90;;
32639;SDS011;19049;52.524;11.468;2023-02-04T01:40:01;1.13;;;0.90;;
32639;SDS011;19049;52.524;11.468;2023-02-04T01:42:27;2.60;;;1.00;;
32639;SDS011;19049;52.524;11.468;2023-02-04T01:44:53;3.27;;;1.17;;
32639;SDS011;19049;52.524;11.468;2023-02-04T01:47:19;1.67;;;1.00;;
32639;SDS011;19049;52.524;11.468;2023-02-04T01:49:49;2.07;;;0.97;;
32639;SDS011;19049;52.524;11.468;2023-02-04T01:52:19;3.30;;;0.73;;
32639;SDS011;19049;52.524;11.468;2023-02-04T01:54:47;1.07;;;0.90;;
32639;SDS011;19049;52.524;11.468;2023-02-04T01:57:20;1.00;;;0.60;;
32639;SDS011;19049;52.524;11.468;2023-02-04T01:59:49;1.13;;;0.70;;
32639;SDS011;19049;52.524;11.468;2023-02-04T02:05:11;0.97;;;0.67;;
32639;SDS011;19049;52.524;11.468;2023-02-04T02:07:40;0.83;;;0.70;;
32639;SDS011;19049;52.524;11.468;2023-02-04T02:10:07;1.77;;;0.80;;
32639;SDS011;19049;52.524;11.468;2023-02-04T02:12:35;1.57;;;0.73;;
32639;SDS011;19049;52.524;11.468;2023-02-04T02:15:07;1.30;;;0.80;;
32639;SDS011;19049;52.524;11.468;2023-02-04T02:17:34;0.83;;;0.77;;
32639;SDS011;19049;52.524;11.468;2023-02-04T02:20:05;1.90;;;0.90;;
32639;SDS011;19049;52.524;11.468;2023-02-04T02:22:34;1.73;;;1.10;;
32639;SDS011;19049;52.524;11.468;2023-02-04T02:25:20;1.87;;;1.20;;
32639;SDS011;19049;52.524;11.468;2023-02-04T02:27:45;1.77;;;1.17;;
32639;SDS011;19049;52.524;11.468;2023-02-04T02:30:11;3.10;;;1.00;;
32639;SDS011;19049;52.524;11.468;2023-02-04T02:32:41;3.20;;;1.20;;
32639;SDS011;19049;52.524;11.468;2023-02-04T02:35:10;2.40;;;1.10;;
32639;SDS011;19049;52.524;11.468;2023-02-04T02:37:35;1.57;;;1.00;;
32639;SDS011;19049;52.524;11.468;2023-02-04T02:40:04;1.30;;;0.67;;
32639;SDS011;19049;52.524;11.468;2023-02-04T02:42:30;0.87;;;0.60;;
32639;SDS011;19049;52.524;11.468;2023-02-04T02:44:57;1.83;;;0.97;;
32639;SDS011;19049;52.524;11.468;2023-02-04T02:47:26;1.67;;;0.83;;
32639;SDS011;19049;52.524;11.468;2023-02-04T02:49:52;0.83;;;0.80;;
32639;SDS011;19049;52.524;11.468;2023-02-04T02:52:19;0.73;;;0.63;;
32639;SDS011;19049;52.524;11.468;2023-02-04T02:54:46;0.80;;;0.70;;
32639;SDS011;19049;52.524;11.468;2023-02-04T02:57:14;3.83;;;0.83;;
32639;SDS011;19049;52.524;11.468;2023-02-04T02:59:41;0.53;;;0.50;;
32639;SDS011;19049;52.524;11.468;2023-02-04T03:02:08;1.37;;;0.70;;
32639;SDS011;19049;52.524;11.468;2023-02-04T03:04:39;0.80;;;0.50;;
32639;SDS011;19049;52.524;11.468;2023-02-04T03:07:07;0.63;;;0.53;;
32639;SDS011;19049;52.524;11.468;2023-02-04T03:09:33;2.43;;;0.80;;
32639;SDS011;19049;52.524;11.468;2023-02-04T03:11:59;1.10;;;0.63;;
32639;SDS011;19049;52.524;11.468;2023-02-04T03:14:26;1.03;;;0.57;;
32639;SDS011;19049;52.524;11.468;2023-02-04T03:16:52;1.53;;;0.70;;
32639;SDS011;19049;52.524;11.468;2023-02-04T03:19:22;1.10;;;0.70;;
32639;SDS011;19049;52.524;11.468;2023-02-04T03:21:53;1.80;;;0.70;;
32639;SDS011;19049;52.524;11.468;2023-02-04T03:24:21;1.47;;;0.87;;
32639;SDS011;19049;52.524;11.468;2023-02-04T03:26:47;1.03;;;0.50;;
32639;SDS011;19049;52.524;11.468;2023-02-04T03:29:13;0.50;;;0.50;;
32639;SDS011;19049;52.524;11.468;2023-02-04T03:31:39;1.50;;;0.57;;
32639;SDS011;19049;52.524;11.468;2023-02-04T03:34:05;0.97;;;0.50;;
32639;SDS011;19049;52.524;11.468;2023-02-04T03:36:31;0.67;;;0.60;;
32639;SDS011;19049;52.524;11.468;2023-02-04T03:38:57;0.63;;;0.47;;
32639;SDS011;19049;52.524;11.468;2023-02-04T03:41:23;1.83;;;0.80;;
32639;SDS011;19049;52.524;11.468;2023-02-04T03:43:49;1.03;;;0.60;;
32639;SDS011;19049;52.524;11.468;2023-02-04T03:46:17;0.60;;;0.40;;
32639;SDS011;19049;52.524;11.468;2023-02-04T03:48:43;0.90;;;0.53;;
32639;SDS011;19049;52.524;11.468;2023-02-04T03:51:09;1.90;;;0.70;;
32639;SDS011;19049;52.524;11.468;2023-02-04T03:53:34;0.90;;;0.77;;
32639;SDS011;19049;52.524;11.468;2023-02-04T03:56:02;1.43;;;0.80;;
32639;SDS011;19049;52.524;11.468;2023-02-04T03:58:28;2.00;;;0.70;;
32639;SDS011;19049;52.524;11.468;2023-02-04T04:00:56;0.73;;;0.60;;
32639;SDS011;19049;52.524;11.468;2023-02-04T04:03:25;0.40;;;0.40;;
32639;SDS011;19049;52.524;11.468;2023-02-04T04:05:51;1.87;;;0.70;;
32639;SDS011;19049;52.524;11.468;2023-02-04T04:08:17;1.73;;;0.50;;
32639;SDS011;19049;52.524;11.468;2023-02-04T04:10:43;0.50;;;0.43;;
32639;SDS011;19049;52.524;11.468;2023-02-04T04:13:11;0.93;;;0.57;;
32639;SDS011;19049;52.524;11.468;2023-02-04T04:15:39;0.70;;;0.60;;
32639;SDS011;19049;52.524;11.468;2023-02-04T04:18:05;0.87;;;0.60;;
32639;SDS011;19049;52.524;11.468;2023-02-04T04:20:31;1.37;;;0.90;;
32639;SDS011;19049;52.524;11.468;2023-02-04T04:22:57;0.63;;;0.60;;
32639;SDS011;19049;52.524;11.468;2023-02-04T04:25:23;0.57;;;0.47;;
32639;SDS011;19049;52.524;11.468;2023-02-04T04:27:49;0.40;;;0.40;;
32639;SDS011;19049;52.524;11.468;2023-02-04T04:30:15;0.83;;;0.50;;
32639;SDS011;19049;52.524;11.468;2023-02-04T04:32:41;0.63;;;0.60;;
32639;SDS011;19049;52.524;11.468;2023-02-04T04:35:07;0.70;;;0.67;;
32639;SDS011;19049;52.524;11.468;2023-02-04T04:37:33;0.93;;;0.63;;
32639;SDS011;19049;52.524;11.468;2023-02-04T04:40:01;1.73;;;0.60;;
32639;SDS011;19049;52.524;11.468;2023-02-04T04:42:27;0.50;;;0.40;;
32639;SDS011;19049;52.524;11.468;2023-02-04T04:44:53;1.53;;;0.80;;
32639;SDS011;19049;52.524;11.468;2023-02-04T04:47:19;1.23;;;0.50;;
32639;SDS011;19049;52.524;11.468;2023-02-04T04:49:45;0.60;;;0.50;;
32639;SDS011;19049;52.524;11.468;2023-02-04T04:52:11;0.97;;;0.60;;
32639;SDS011;19049;52.524;11.468;2023-02-04T04:54:40;1.47;;;0.53;;
32639;SDS011;19049;52.524;11.468;2023-02-04T04:57:06;0.83;;;0.50;;
32639;SDS011;19049;52.524;11.468;2023-02-04T04:59:32;0.80;;;0.50;;
32639;SDS011;19049;52.524;11.468;2023-02-04T05:02:02;0.60;;;0.50;;
32639;SDS011;19049;52.524;11.468;2023-02-04T05:04:30;0.87;;;0.57;;
32639;SDS011;19049;52.524;11.468;2023-02-04T05:06:58;1.37;;;0.20;;
32639;SDS011;19049;52.524;11.468;2023-02-04T05:09:24;1.20;;;0.50;;
32639;SDS011;19049;52.524;11.468;2023-02-04T05:11:50;0.50;;;0.40;;
32639;SDS011;19049;52.524;11.468;2023-02-04T05:14:16;1.97;;;0.70;;
32639;SDS011;19049;52.524;11.468;2023-02-04T05:16:41;0.50;;;0.33;;
32639;SDS011;19049;52.524;11.468;2023-02-04T05:19:07;0.50;;;0.40;;
32639;SDS011;19049;52.524;11.468;2023-02-04T05:21:33;1.70;;;0.40;;
32639;SDS011;19049;52.524;11.468;2023-02-04T05:23:59;1.10;;;0.67;;
32639;SDS011;19049;52.524;11.468;2023-02-04T05:26:25;1.33;;;0.60;;
32639;SDS011;19049;52.524;11.468;2023-02-04T05:28:53;0.60;;;0.40;;
32639;SDS011;19049;52.524;11.468;2023-02-04T05:31:20;0.47;;;0.47;;
32639;SDS011;19049;52.524;11.468;2023-02-04T05:33:46;0.77;;;0.60;;
32639;SDS011;19049;52.524;11.468;2023-02-04T05:36:12;1.37;;;0.60;;
32639;SDS011;19049;52.524;11.468;2023-02-04T05:38:38;1.90;;;0.90;;
32639;SDS011;19049;52.524;11.468;2023-02-04T05:41:03;2.30;;;0.80;;
32639;SDS011;19049;52.524;11.468;2023-02-04T05:43:29;0.60;;;0.60;;
32639;SDS011;19049;52.524;11.468;2023-02-04T05:45:55;1.00;;;0.70;;
32639;SDS011;19049;52.524;11.468;2023-02-04T05:48:21;1.60;;;0.70;;
32639;SDS011;19049;52.524;11.468;2023-02-04T05:50:47;0.87;;;0.67;;
32639;SDS011;19049;52.524;11.468;2023-02-04T05:53:13;1.77;;;0.77;;
32639;SDS011;19049;52.524;11.468;2023-02-04T05:55:39;2.83;;;0.80;;
32639;SDS011;19049;52.524;11.468;2023-02-04T05:58:05;0.80;;;0.53;;
32639;SDS011;19049;52.524;11.468;2023-02-04T06:00:33;1.30;;;0.77;;
32639;SDS011;19049;52.524;11.468;2023-02-04T06:02:59;0.70;;;0.60;;
32639;SDS011;19049;52.524;11.468;2023-02-04T06:05:25;1.77;;;1.00;;
32639;SDS011;19049;52.524;11.468;2023-02-04T06:07:51;0.87;;;0.70;;
32639;SDS011;19049;52.524;11.468;2023-02-04T06:10:17;1.03;;;0.80;;
32639;SDS011;19049;52.524;11.468;2023-02-04T06:12:45;0.93;;;0.83;;
32639;SDS011;19049;52.524;11.468;2023-02-04T06:15:11;1.00;;;0.70;;
32639;SDS011;19049;52.524;11.468;2023-02-04T06:17:37;0.87;;;0.60;;
32639;SDS011;19049;52.524;11.468;2023-02-04T06:20:03;1.00;;;0.73;;
32639;SDS011;19049;52.524;11.468;2023-02-04T06:22:30;1.17;;;0.70;;
32639;SDS011;19049;52.524;11.468;2023-02-04T06:24:56;1.13;;;0.87;;
32639;SDS011;19049;52.524;11.468;2023-02-04T06:27:22;0.90;;;0.50;;
32639;SDS011;19049;52.524;11.468;2023-02-04T06:29:48;1.10;;;0.70;;
32639;SDS011;19049;52.524;11.468;2023-02-04T06:32:15;1.13;;;0.70;;
32639;SDS011;19049;52.524;11.468;2023-02-04T06:34:41;2.27;;;0.50;;
32639;SDS011;19049;52.524;11.468;2023-02-04T06:37:07;0.87;;;0.70;;
32639;SDS011;19049;52.524;11.468;2023-02-04T06:39:33;0.80;;;0.50;;
32639;SDS011;19049;52.524;11.468;2023-02-04T06:41:58;1.27;;;0.97;;
32639;SDS011;19049;52.524;11.468;2023-02-04T06:44:24;0.97;;;0.70;;
32639;SDS011;19049;52.524;11.468;2023-02-04T06:46:50;1.27;;;0.87;;
32639;SDS011;19049;52.524;11.468;2023-02-04T06:49:17;0.90;;;0.70;;
32639;SDS011;19049;52.524;11.468;2023-02-04T06:51:43;2.03;;;0.80;;
32639;SDS011;19049;52.524;11.468;2023-02-04T06:54:11;0.80;;;0.67;;
32639;SDS011;19049;52.524;11.468;2023-02-04T06:56:37;2.17;;;1.10;;
32639;SDS011;19049;52.524;11.468;2023-02-04T06:59:03;0.77;;;0.70;;
32639;SDS011;19049;52.524;11.468;2023-02-04T07:01:28;1.07;;;0.80;;
32639;SDS011;19049;52.524;11.468;2023-02-04T07:03:54;1.13;;;0.83;;
32639;SDS011;19049;52.524;11.468;2023-02-04T07:06:20;4.10;;;0.80;;
32639;SDS011;19049;52.524;11.468;2023-02-04T07:08:48;1.83;;;0.73;;
32639;SDS011;19049;52.524;11.468;2023-02-04T07:11:14;1.13;;;0.80;;
32639;SDS011;19049;52.524;11.468;2023-02-04T07:13:40;0.90;;;0.60;;
32639;SDS011;19049;52.524;11.468;2023-02-04T07:16:06;1.13;;;0.70;;
32639;SDS011;19049;52.524;11.468;2023-02-04T07:18:32;2.13;;;0.90;;
32639;SDS011;19049;52.524;11.468;2023-02-04T07:20:58;1.17;;;1.00;;
32639;SDS011;19049;52.524;11.468;2023-02-04T07:23:24;1.77;;;0.90;;
32639;SDS011;19049;52.524;11.468;2023-02-04T07:25:52;1.43;;;0.90;;
32639;SDS011;19049;52.524;11.468;2023-02-04T07:28:20;2.37;;;1.10;;
32639;SDS011;19049;52.524;11.468;2023-02-04T07:30:46;2.53;;;1.30;;
32639;SDS011;19049;52.524;11.468;2023-02-04T07:33:12;1.50;;;1.10;;
32639;SDS011;19049;52.524;11.468;2023-02-04T07:35:41;1.83;;;1.23;;
32639;SDS011;19049;52.524;11.468;2023-02-04T07:38:10;2.20;;;1.40;;
32639;SDS011;19049;52.524;11.468;2023-02-04T07:40:36;1.20;;;1.03;;
32639;SDS011;19049;52.524;11.468;2023-02-04T07:43:03;1.60;;;1.13;;
32639;SDS011;19049;52.524;11.468;2023-02-04T07:45:31;1.83;;;1.17;;
32639;SDS011;19049;52.524;11.468;2023-02-04T07:47:57;1.30;;;1.00;;
32639;SDS011;19049;52.524;11.468;2023-02-04T07:50:23;1.20;;;0.83;;
32639;SDS011;19049;52.524;11.468;2023-02-04T07:52:49;1.57;;;0.90;;
32639;SDS011;19049;52.524;11.468;2023-02-04T07:55:15;1.20;;;1.00;;
32639;SDS011;19049;52.524;11.468;2023-02-04T07:57:42;3.37;;;1.00;;
32639;SDS011;19049;52.524;11.468;2023-02-04T08:00:08;1.60;;;0.90;;
32639;SDS011;19049;52.524;11.468;2023-02-04T08:02:34;1.30;;;1.10;;
32639;SDS011;19049;52.524;11.468;2023-02-04T08:05:03;1.03;;;0.83;;
32639;SDS011;19049;52.524;11.468;2023-02-04T08:07:31;1.40;;;1.10;;
32639;SDS011;19049;52.524;11.468;2023-02-04T08:09:57;1.83;;;1.00;;
32639;SDS011;19049;52.524;11.468;2023-02-04T08:12:23;4.50;;;1.20;;
32639;SDS011;19049;52.524;11.468;2023-02-04T08:14:49;1.83;;;0.90;;
32639;SDS011;19049;52.524;11.468;2023-02-04T08:17:15;1.50;;;1.00;;
32639;SDS011;19049;52.524;11.468;2023-02-04T08:19:41;2.43;;;1.50;;
32639;SDS011;19049;52.524;11.468;2023-02-04T08:22:07;1.73;;;1.13;;
32639;SDS011;19049;52.524;11.468;2023-02-04T08:24:38;1.83;;;1.27;;
32639;SDS011;19049;52.524;11.468;2023-02-04T08:27:12;1.27;;;0.97;;
32639;SDS011;19049;52.524;11.468;2023-02-04T08:29:38;1.83;;;1.10;;
32639;SDS011;19049;52.524;11.468;2023-02-04T08:32:04;1.17;;;1.00;;
32639;SDS011;19049;52.524;11.468;2023-02-04T08:34:30;1.33;;;1.13;;
32639;SDS011;19049;52.524;11.468;2023-02-04T08:36:56;5.13;;;2.60;;
32639;SDS011;19049;52.524;11.468;2023-02-04T08:39:22;6.60;;;4.43;;
32639;SDS011;19049;52.524;11.468;2023-02-04T08:41:48;9.80;;;6.33;;
32639;SDS011;19049;52.524;11.468;2023-02-04T08:44:17;14.20;;;8.63;;
32639;SDS011;19049;52.524;11.468;2023-02-04T08:46:43;11.13;;;6.57;;
32639;SDS011;19049;52.524;11.468;2023-02-04T08:49:09;17.37;;;11.13;;
32639;SDS011;19049;52.524;11.468;2023-02-04T08:51:35;20.47;;;12.47;;
32639;SDS011;19049;52.524;11.468;2023-02-04T08:54:01;14.93;;;8.57;;
32639;SDS011;19049;52.524;11.468;2023-02-04T08:56:27;13.33;;;9.53;;
32639;SDS011;19049;52.524;11.468;2023-02-04T08:58:56;15.07;;;9.30;;
32639;SDS011;19049;52.524;11.468;2023-02-04T09:01:21;9.87;;;6.50;;
32639;SDS011;19049;52.524;11.468;2023-02-04T09:03:49;8.60;;;5.43;;
32639;SDS011;19049;52.524;11.468;2023-02-04T09:06:20;4.13;;;3.30;;
32639;SDS011;19049;52.524;11.468;2023-02-04T09:08:53;5.30;;;2.97;;
32639;SDS011;19049;52.524;11.468;2023-02-04T09:11:19;2.67;;;1.97;;
32639;SDS011;19049;52.524;11.468;2023-02-04T09:13:45;2.77;;;1.77;;
32639;SDS011;19049;52.524;11.468;2023-02-04T09:16:11;2.93;;;1.73;;
32639;SDS011;19049;52.524;11.468;2023-02-04T09:18:38;1.97;;;1.60;;
32639;SDS011;19049;52.524;11.468;2023-02-04T09:21:04;3.43;;;1.40;;
32639;SDS011;19049;52.524;11.468;2023-02-04T09:23:30;1.30;;;1.00;;
32639;SDS011;19049;52.524;11.468;2023-02-04T09:25:56;1.20;;;0.83;;
32639;SDS011;19049;52.524;11.468;2023-02-04T09:28:22;1.27;;;0.80;;
32639;SDS011;19049;52.524;11.468;2023-02-04T09:30:48;1.33;;;0.77;;
32639;SDS011;19049;52.524;11.468;2023-02-04T09:33:15;1.40;;;0.60;;
32639;SDS011;19049;52.524;11.468;2023-02-04T09:35:40;1.00;;;0.60;;
32639;SDS011;19049;52.524;11.468;2023-02-04T09:38:06;1.30;;;0.60;;
32639;SDS011;19049;52.524;11.468;2023-02-04T09:40:33;1.87;;;0.50;;
32639;SDS011;19049;52.524;11.468;2023-02-04T09:43:05;0.90;;;0.60;;
32639;SDS011;19049;52.524;11.468;2023-02-04T09:45:36;2.50;;;0.73;;
32639;SDS011;19049;52.524;11.468;2023-02-04T09:48:03;1.80;;;0.67;;
32639;SDS011;19049;52.524;11.468;2023-02-04T09:50:30;1.40;;;0.70;;
32639;SDS011;19049;52.524;11.468;2023-02-04T09:52:58;0.50;;;0.50;;
32639;SDS011;19049;52.524;11.468;2023-02-04T09:55:31;0.93;;;0.60;;
32639;SDS011;19049;52.524;11.468;2023-02-04T09:58:07;0.40;;;0.40;;
32639;SDS011;19049;52.524;11.468;2023-02-04T10:00:55;1.20;;;0.50;;
32639;SDS011;19049;52.524;11.468;2023-02-04T10:03:24;2.00;;;0.67;;
32639;SDS011;19049;52.524;11.468;2023-02-04T10:05:50;1.07;;;0.50;;
32639;SDS011;19049;52.524;11.468;2023-02-04T10:08:17;1.50;;;0.30;;
32639;SDS011;19049;52.524;11.468;2023-02-04T10:10:44;0.90;;;0.57;;
32639;SDS011;19049;52.524;11.468;2023-02-04T10:13:17;2.43;;;0.80;;
32639;SDS011;19049;52.524;11.468;2023-02-04T10:15:45;1.57;;;1.00;;
32639;SDS011;19049;52.524;11.468;2023-02-04T10:18:20;2.03;;;0.60;;
32639;SDS011;19049;52.524;11.468;2023-02-04T10:20:53;2.00;;;1.10;;
32639;SDS011;19049;52.524;11.468;2023-02-04T10:23:36;3.00;;;1.13;;
32639;SDS011;19049;52.524;11.468;2023-02-04T10:26:08;2.60;;;1.50;;
32639;SDS011;19049;52.524;11.468;2023-02-04T10:28:36;0.97;;;0.77;;
32639;SDS011;19049;52.524;11.468;2023-02-04T10:31:04;3.10;;;1.60;;
32639;SDS011;19049;52.524;11.468;2023-02-04T10:33:32;1.83;;;1.50;;
32639;SDS011;19049;52.524;11.468;2023-02-04T10:36:01;1.50;;;1.10;;
32639;SDS011;19049;52.524;11.468;2023-02-04T10:38:28;1.30;;;1.17;;
32639;SDS011;19049;52.524;11.468;2023-02-04T10:41:01;1.47;;;1.27;;
32639;SDS011;19049;52.524;11.468;2023-02-04T10:43:29;3.23;;;1.60;;
32639;SDS011;19049;52.524;11.468;2023-02-04T10:45:57;3.03;;;1.30;;
32639;SDS011;19049;52.524;11.468;2023-02-04T10:48:25;3.13;;;1.57;;
32639;SDS011;19049;52.524;11.468;2023-02-04T10:50:51;3.80;;;2.10;;
32639;SDS011;19049;52.524;11.468;2023-02-04T10:53:23;2.23;;;1.57;;
32639;SDS011;19049;52.524;11.468;2023-02-04T10:56:11;2.47;;;1.00;;
32639;SDS011;19049;52.524;11.468;2023-02-04T10:58:46;4.13;;;1.13;;
32639;SDS011;19049;52.524;11.468;2023-02-04T11:01:13;2.10;;;1.03;;
32639;SDS011;19049;52.524;11.468;2023-02-04T11:04:19;2.13;;;0.90;;
32639;SDS011;19049;52.524;11.468;2023-02-04T11:06:45;1.20;;;0.50;;
32639;SDS011;19049;52.524;11.468;2023-02-04T11:09:33;0.70;;;0.50;;
32639;SDS011;19049;52.524;11.468;2023-02-04T11:12:01;0.40;;;0.40;;
32639;SDS011;19049;52.524;11.468;2023-02-04T11:14:29;2.00;;;0.60;;
32639;SDS011;19049;52.524;11.468;2023-02-04T11:16:55;1.37;;;0.80;;
32639;SDS011;19049;52.524;11.468;2023-02-04T11:19:45;0.70;;;0.40;;
32639;SDS011;19049;52.524;11.468;2023-02-04T11:22:34;1.30;;;0.60;;
32639;SDS011;19049;52.524;11.468;2023-02-04T11:25:29;1.13;;;0.67;;
32639;SDS011;19049;52.524;11.468;2023-02-04T11:28:13;1.63;;;0.33;;
32639;SDS011;19049;52.524;11.468;2023-02-04T11:30:59;2.13;;;0.83;;
32639;SDS011;19049;52.524;11.468;2023-02-04T11:33:35;1.40;;;0.70;;
32639;SDS011;19049;52.524;11.468;2023-02-04T11:36:06;1.27;;;0.60;;
32639;SDS011;19049;52.524;11.468;2023-02-04T11:38:35;1.30;;;0.80;;
32639;SDS011;19049;52.524;11.468;2023-02-04T11:41:13;1.63;;;0.77;;
32639;SDS011;19049;52.524;11.468;2023-02-04T11:43:52;1.93;;;0.63;;
32639;SDS011;19049;52.524;11.468;2023-02-04T11:46:25;0.60;;;0.43;;
32639;SDS011;19049;52.524;11.468;2023-02-04T11:48:55;1.27;;;0.57;;
32639;SDS011;19049;52.524;11.468;2023-02-04T11:51:25;1.70;;;0.50;;
32639;SDS011;19049;52.524;11.468;2023-02-04T11:53:55;1.30;;;0.50;;
32639;SDS011;19049;52.524;11.468;2023-02-04T11:56:21;0.70;;;0.30;;
32639;SDS011;19049;52.524;11.468;2023-02-04T11:58:48;0.60;;;0.50;;
32639;SDS011;19049;52.524;11.468;2023-02-04T12:01:19;0.90;;;0.53;;
32639;SDS011;19049;52.524;11.468;2023-02-04T12:03:56;1.70;;;0.70;;
32639;SDS011;19049;52.524;11.468;2023-02-04T12:06:28;1.33;;;0.73;;
32639;SDS011;19049;52.524;11.468;2023-02-04T12:09:07;2.13;;;0.60;;
32639;SDS011;19049;52.524;11.468;2023-02-04T12:11:55;1.83;;;0.60;;
32639;SDS011;19049;52.524;11.468;2023-02-04T12:14:28;0.80;;;0.50;;
32639;SDS011;19049;52.524;11.468;2023-02-04T12:16:58;0.53;;;0.50;;
32639;SDS011;19049;52.524;11.468;2023-02-04T12:19:24;0.87;;;0.50;;
32639;SDS011;19049;52.524;11.468;2023-02-04T12:21:50;2.10;;;0.60;;
32639;SDS011;19049;52.524;11.468;2023-02-04T12:24:19;0.67;;;0.37;;
32639;SDS011;19049;52.524;11.468;2023-02-04T12:26:45;0.43;;;0.30;;
32639;SDS011;19049;52.524;11.468;2023-02-04T12:29:11;1.30;;;0.40;;
32639;SDS011;19049;52.524;11.468;2023-02-04T12:31:37;1.93;;;0.40;;
32639;SDS011;19049;52.524;11.468;2023-02-04T12:34:03;1.60;;;0.30;;
32639;SDS011;19049;52.524;11.468;2023-02-04T12:36:31;0.60;;;0.40;;
32639;SDS011;19049;52.524;11.468;2023-02-04T12:38:57;0.93;;;0.50;;
32639;SDS011;19049;52.524;11.468;2023-02-04T12:41:23;1.53;;;0.90;;
32639;SDS011;19049;52.524;11.468;2023-02-04T12:43:49;0.57;;;0.40;;
32639;SDS011;19049;52.524;11.468;2023-02-04T12:46:15;1.93;;;0.27;;
32639;SDS011;19049;52.524;11.468;2023-02-04T12:48:42;2.20;;;0.67;;
32639;SDS011;19049;52.524;11.468;2023-02-04T12:51:08;1.17;;;0.57;;
32639;SDS011;19049;52.524;11.468;2023-02-04T12:53:34;0.50;;;0.30;;
32639;SDS011;19049;52.524;11.468;2023-02-04T12:56:02;0.50;;;0.40;;
32639;SDS011;19049;52.524;11.468;2023-02-04T12:58:27;0.73;;;0.40;;
32639;SDS011;19049;52.524;11.468;2023-02-04T13:00:53;1.13;;;0.50;;
32639;SDS011;19049;52.524;11.468;2023-02-04T13:03:20;0.90;;;0.40;;
32639;SDS011;19049;52.524;11.468;2023-02-04T13:05:47;0.33;;;0.30;;
32639;SDS011;19049;52.524;11.468;2023-02-04T13:08:15;1.07;;;0.23;;
32639;SDS011;19049;52.524;11.468;2023-02-04T13:10:44;0.40;;;0.30;;
32639;SDS011;19049;52.524;11.468;2023-02-04T13:13:14;1.20;;;0.30;;
32639;SDS011;19049;52.524;11.468;2023-02-04T13:15:40;0.60;;;0.30;;
32639;SDS011;19049;52.524;11.468;2023-02-04T13:18:06;0.93;;;0.30;;
32639;SDS011;19049;52.524;11.468;2023-02-04T13:20:35;0.63;;;0.30;;
32639;SDS011;19049;52.524;11.468;2023-02-04T13:23:03;1.30;;;0.40;;
32639;SDS011;19049;52.524;11.468;2023-02-04T13:25:29;1.17;;;1.07;;
32639;SDS011;19049;52.524;11.468;2023-02-04T13:27:55;0.67;;;0.50;;
32639;SDS011;19049;52.524;11.468;2023-02-04T13:30:20;1.23;;;0.67;;
32639;SDS011;19049;52.524;11.468;2023-02-04T13:32:46;0.70;;;0.70;;
32639;SDS011;19049;52.524;11.468;2023-02-04T13:35:15;2.50;;;2.30;;
32639;SDS011;19049;52.524;11.468;2023-02-04T13:37:41;7.37;;;6.57;;
32639;SDS011;19049;52.524;11.468;2023-02-04T13:40:09;3.70;;;3.40;;
32639;SDS011;19049;52.524;11.468;2023-02-04T13:42:36;3.00;;;2.70;;
32639;SDS011;19049;52.524;11.468;2023-02-04T13:45:02;3.67;;;2.57;;
32639;SDS011;19049;52.524;11.468;2023-02-04T13:47:33;2.37;;;2.17;;
32639;SDS011;19049;52.524;11.468;2023-02-04T13:49:59;3.70;;;3.27;;
32639;SDS011;19049;52.524;11.468;2023-02-04T13:52:25;3.87;;;3.30;;
32639;SDS011;19049;52.524;11.468;2023-02-04T13:54:51;2.70;;;2.50;;
32639;SDS011;19049;52.524;11.468;2023-02-04T13:57:19;5.57;;;3.43;;
32639;SDS011;19049;52.524;11.468;2023-02-04T13:59:45;4.90;;;4.40;;
32639;SDS011;19049;52.524;11.468;2023-02-04T14:02:10;3.50;;;3.17;;
32639;SDS011;19049;52.524;11.468;2023-02-04T14:04:41;3.50;;;2.30;;
32639;SDS011;19049;52.524;11.468;2023-02-04T14:07:08;4.33;;;1.93;;
32639;SDS011;19049;52.524;11.468;2023-02-04T14:09:34;6.17;;;3.77;;
32639;SDS011;19049;52.524;11.468;2023-02-04T14:11:59;3.03;;;2.00;;
32639;SDS011;19049;52.524;11.468;2023-02-04T14:14:25;3.33;;;2.30;;
32639;SDS011;19049;52.524;11.468;2023-02-04T14:16:51;3.30;;;2.70;;
32639;SDS011;19049;52.524;11.468;2023-02-04T14:19:34;9.67;;;8.17;;
32639;SDS011;19049;52.524;11.468;2023-02-04T14:25:05;2.77;;;2.20;;
32639;SDS011;19049;52.524;11.468;2023-02-04T14:27:34;1.53;;;1.30;;
32639;SDS011;19049;52.524;11.468;2023-02-04T14:30:02;3.23;;;2.30;;
32639;SDS011;19049;52.524;11.468;2023-02-04T14:32:29;2.07;;;1.50;;
32639;SDS011;19049;52.524;11.468;2023-02-04T14:34:55;1.33;;;1.03;;
32639;SDS011;19049;52.524;11.468;2023-02-04T14:37:21;0.87;;;0.70;;
32639;SDS011;19049;52.524;11.468;2023-02-04T14:39:49;0.50;;;0.50;;
32639;SDS011;19049;52.524;11.468;2023-02-04T14:42:17;0.67;;;0.67;;